createdAt,value
2018-12-20T00:01:09.726Z,98866.62
2018-12-20T00:03:37.967Z,98864.25
2018-12-20T00:06:06.141Z,98859.55
2018-12-20T00:08:34.536Z,98858.31
2018-12-20T00:11:03.011Z,98856.06
2018-12-20T00:13:31.255Z,98859.63
2018-12-20T00:15:59.429Z,98863.59
2018-12-20T00:18:27.768Z,98865.37
2018-12-20T00:20:55.989Z,98868.31
2018-12-20T00:23:24.243Z,98861.42
2018-12-20T00:25:53.472Z,98862.53
2018-12-20T00:28:21.653Z,98866.49
2018-12-20T00:30:49.950Z,98858.87
2018-12-20T00:33:18.585Z,98853.13
2018-12-20T00:35:47.064Z,98847.92
2018-12-20T00:38:15.341Z,98847.27
2018-12-20T00:40:43.559Z,98852.09
2018-12-20T00:43:11.743Z,98853.77
2018-12-20T00:45:40.057Z,98849.98
2018-12-20T00:48:08.276Z,98857.08
2018-12-20T00:50:36.449Z,98850.94
2018-12-20T00:53:04.807Z,98852.16
2018-12-20T00:55:33.168Z,98854.23
2018-12-20T00:58:01.466Z,98855.92
2018-12-20T01:00:29.939Z,98852.26
2018-12-20T01:02:59.350Z,98848.50
2018-12-20T01:05:27.982Z,98841.23
2018-12-20T01:07:56.699Z,98846.42
2018-12-20T01:10:24.878Z,98847.54
2018-12-20T01:12:53.034Z,98841.41
2018-12-20T01:15:21.455Z,98844.70
2018-12-20T01:17:49.590Z,98847.17
2018-12-20T01:20:17.928Z,98853.67
2018-12-20T01:22:46.398Z,98852.06
2018-12-20T01:25:14.740Z,98857.44
2018-12-20T01:27:43.008Z,98861.00
2018-12-20T01:30:11.187Z,98857.44
2018-12-20T01:32:39.449Z,98859.68
2018-12-20T01:35:08.026Z,98855.55
2018-12-20T01:37:36.426Z,98856.22
2018-12-20T01:40:05.534Z,98860.38
2018-12-20T01:42:34.168Z,98856.31
2018-12-20T01:45:02.456Z,98857.90
2018-12-20T01:47:30.699Z,98855.27
2018-12-20T01:49:59.446Z,98859.15
2018-12-20T01:52:27.710Z,98861.20
2018-12-20T01:54:55.852Z,98863.02
2018-12-20T01:57:25.150Z,98865.16
2018-12-20T01:59:53.392Z,98867.03
2018-12-20T02:02:21.735Z,98862.72
2018-12-20T02:04:50.004Z,98868.59
2018-12-20T02:07:18.323Z,98860.08
2018-12-20T02:09:46.567Z,98861.49
2018-12-20T02:12:14.913Z,98865.55
2018-12-20T02:14:43.339Z,98864.43
2018-12-20T02:17:11.688Z,98858.75
2018-12-20T02:19:40.186Z,98856.88
2018-12-20T02:22:08.357Z,98858.75
2018-12-20T02:24:36.649Z,98860.54
2018-12-20T02:27:05.004Z,98856.11
2018-12-20T02:29:33.273Z,98859.81
2018-12-20T02:32:01.590Z,98853.28
2018-12-20T02:34:30.187Z,98860.73
2018-12-20T02:36:58.682Z,98850.34
2018-12-20T02:39:27.017Z,98861.20
2018-12-20T02:41:55.246Z,98849.32
2018-12-20T02:44:23.736Z,98854.59
2018-12-20T02:46:52.822Z,98856.58
2018-12-20T02:49:21.204Z,98853.08
2018-12-20T02:51:49.648Z,98853.84
2018-12-20T02:54:17.982Z,98847.05
2018-12-20T02:56:46.380Z,98847.91
2018-12-20T02:59:14.831Z,98845.92
2018-12-20T03:01:43.133Z,98845.27
2018-12-20T03:04:11.295Z,98840.19
2018-12-20T03:06:39.761Z,98844.88
2018-12-20T03:09:09.073Z,98843.75
2018-12-20T03:11:37.306Z,98838.67
2018-12-20T03:14:05.439Z,98842.33
2018-12-20T03:16:33.601Z,98840.05
2018-12-20T03:19:01.999Z,98847.24
2018-12-20T03:21:30.317Z,98843.09
2018-12-20T03:23:58.898Z,98843.09
2018-12-20T03:26:27.142Z,98842.89
2018-12-20T03:28:55.352Z,98849.28
2018-12-20T03:31:23.623Z,98849.48
2018-12-20T03:33:51.889Z,98847.04
2018-12-20T03:36:20.130Z,98859.56
2018-12-20T03:38:48.413Z,98854.66
2018-12-20T03:41:16.804Z,98855.88
2018-12-20T03:43:45.288Z,98856.99
2018-12-20T03:46:14.061Z,98853.59
2018-12-20T03:48:42.468Z,98855.41
2018-12-20T03:51:11.177Z,98861.71
2018-12-20T03:53:39.496Z,98869.91
2018-12-20T03:56:07.708Z,98876.41
2018-12-20T03:58:35.954Z,98874.23
2018-12-20T04:01:04.328Z,98870.47
2018-12-20T04:03:32.627Z,98882.34
2018-12-20T04:06:01.332Z,98879.05
2018-12-20T04:08:29.677Z,98890.34
2018-12-20T04:10:58.028Z,98897.77
2018-12-20T04:13:26.847Z,98894.20
2018-12-20T04:15:55.084Z,98902.77
2018-12-20T04:18:23.318Z,98893.14
2018-12-20T04:20:51.712Z,98896.45
2018-12-20T04:23:20.069Z,98899.44
2018-12-20T04:25:48.469Z,98904.80
2018-12-20T04:28:16.918Z,98899.53
2018-12-20T04:30:45.236Z,98903.22
2018-12-20T04:33:13.362Z,98901.25
2018-12-20T04:35:41.545Z,98899.05
2018-12-20T04:38:09.887Z,98903.83
2018-12-20T04:40:38.235Z,98902.49
2018-12-20T04:43:06.526Z,98899.52
2018-12-20T04:45:34.814Z,98896.53
2018-12-20T04:48:03.458Z,98904.69
2018-12-20T04:50:32.046Z,98902.63
2018-12-20T04:53:00.625Z,98900.95
2018-12-20T04:55:28.940Z,98900.84
2018-12-20T04:57:57.583Z,98911.70
2018-12-20T05:00:25.800Z,98907.84
2018-12-20T05:02:54.259Z,98920.27
2018-12-20T05:05:22.965Z,98917.53
2018-12-20T05:07:51.249Z,98923.17
2018-12-20T05:10:19.837Z,98926.55
2018-12-20T05:12:48.122Z,98919.52
2018-12-20T05:15:16.635Z,98916.52
2018-12-20T05:17:44.998Z,98923.66
2018-12-20T05:20:13.575Z,98919.41
2018-12-20T05:22:42.194Z,98927.50
2018-12-20T05:25:10.496Z,98927.20
2018-12-20T05:27:38.709Z,98921.67
2018-12-20T05:30:07.383Z,98922.84
2018-12-20T05:32:35.932Z,98920.65
2018-12-20T05:35:04.436Z,98924.54
2018-12-20T05:37:32.800Z,98922.70
2018-12-20T05:40:01.367Z,98936.46
2018-12-20T05:42:29.856Z,98937.36
2018-12-20T05:44:58.236Z,98939.50
2018-12-20T05:47:26.500Z,98931.93
2018-12-20T05:49:54.867Z,98931.38
2018-12-20T05:52:23.218Z,98927.06
2018-12-20T05:54:51.629Z,98934.56
2018-12-20T05:57:19.850Z,98937.32
2018-12-20T05:59:48.074Z,98933.47
2018-12-20T06:02:16.245Z,98936.34
2018-12-20T06:04:44.584Z,98931.02
2018-12-20T06:07:12.964Z,98931.02
2018-12-20T06:09:41.369Z,98935.42
2018-12-20T06:12:09.857Z,98935.97
2018-12-20T06:14:38.039Z,98935.78
2018-12-20T06:17:06.526Z,98932.66
2018-12-20T06:19:34.739Z,98932.66
2018-12-20T06:22:03.571Z,98943.05
2018-12-20T06:24:31.786Z,98940.81
2018-12-20T06:27:00.033Z,98941.89
2018-12-20T06:29:28.217Z,98939.80
2018-12-20T06:31:56.381Z,98942.34
2018-12-20T06:34:25.553Z,98941.19
2018-12-20T06:36:53.741Z,98945.08
2018-12-20T06:39:22.232Z,98950.16
2018-12-20T06:41:50.403Z,98948.55
2018-12-20T06:44:18.584Z,98952.28
2018-12-20T06:46:52.007Z,98943.05
2018-12-20T06:49:20.145Z,98949.59
2018-12-20T06:51:48.274Z,98944.68
2018-12-20T06:54:16.392Z,98950.74
2018-12-20T06:56:44.560Z,98940.38
2018-12-20T06:59:13.119Z,98947.07
2018-12-20T07:01:41.316Z,98945.84
2018-12-20T07:04:09.616Z,98947.73
2018-12-20T07:06:37.751Z,98942.92
2018-12-20T07:09:08.730Z,98941.91
2018-12-20T07:11:37.257Z,98939.06
2018-12-20T07:14:05.575Z,98945.14
2018-12-20T07:16:33.733Z,98942.83
2018-12-20T07:19:01.963Z,98952.12
2018-12-20T07:21:30.168Z,98944.36
2018-12-20T07:23:58.751Z,98951.92
2018-12-20T07:26:26.950Z,98954.88
2018-12-20T07:28:55.075Z,98959.09
2018-12-20T07:31:23.250Z,98957.06
2018-12-20T07:33:51.375Z,98960.83
2018-12-20T07:36:19.934Z,98956.55
2018-12-20T07:38:48.042Z,98964.80
2018-12-20T07:41:16.501Z,98962.34
2018-12-20T07:43:44.643Z,98956.19
2018-12-20T07:46:12.770Z,98957.16
2018-12-20T07:48:41.909Z,98965.74
2018-12-20T07:51:10.036Z,98971.71
2018-12-20T07:53:38.325Z,98977.30
2018-12-20T07:56:07.382Z,98983.46
2018-12-20T07:58:35.662Z,98982.42
2018-12-20T08:01:03.932Z,98990.39
2018-12-20T08:03:32.405Z,98988.03
2018-12-20T08:06:00.690Z,98984.51
2018-12-20T08:08:29.077Z,98988.61
2018-12-20T08:10:57.200Z,98988.45
2018-12-20T08:13:25.800Z,99003.28
2018-12-20T08:15:53.915Z,98992.30
2018-12-20T08:18:22.048Z,98998.06
2018-12-20T08:20:50.240Z,98996.67
2018-12-20T08:23:18.511Z,99007.53
2018-12-20T08:25:46.678Z,99003.12
2018-12-20T08:28:14.808Z,99006.09
2018-12-20T08:30:42.926Z,98998.77
2018-12-20T08:33:11.055Z,99001.27
2018-12-20T08:35:39.279Z,99008.27
2018-12-20T08:38:07.472Z,99013.06
2018-12-20T08:40:35.727Z,99014.38
2018-12-20T08:43:03.913Z,99015.33
2018-12-20T08:45:32.206Z,99017.83
2018-12-20T08:48:00.348Z,99022.46
2018-12-20T08:50:28.659Z,99027.14
2018-12-20T08:52:57.825Z,99021.89
2018-12-20T08:55:25.996Z,99032.88
2018-12-20T08:57:54.160Z,99028.23
2018-12-20T09:00:22.340Z,99025.59
2018-12-20T09:02:51.215Z,99032.68
2018-12-20T09:05:19.413Z,99036.92
2018-12-20T09:07:47.569Z,99039.91
2018-12-20T09:10:15.850Z,99039.98
2018-12-20T09:12:44.138Z,99037.00
2018-12-20T09:15:12.627Z,99036.30
2018-12-20T09:17:40.793Z,99034.70
2018-12-20T09:20:09.305Z,99034.61
2018-12-20T09:22:37.537Z,99040.72
2018-12-20T09:25:05.830Z,99050.89
2018-12-20T09:27:34.575Z,99046.99
2018-12-20T09:30:02.698Z,99048.86
2018-12-20T09:32:30.845Z,99046.88
2018-12-20T09:34:59.139Z,99051.81
2018-12-20T09:37:27.681Z,99052.88
2018-12-20T09:39:56.369Z,99055.64
2018-12-20T09:42:24.488Z,99054.58
2018-12-20T09:44:52.620Z,99052.58
2018-12-20T09:47:26.199Z,99058.28
2018-12-20T09:49:54.352Z,99051.93
2018-12-20T09:52:22.473Z,99053.84
2018-12-20T09:54:50.657Z,99045.30
2018-12-20T09:57:18.821Z,99037.11
2018-12-20T09:59:47.108Z,99047.53
2018-12-20T10:02:16.319Z,99044.17
2018-12-20T10:04:45.744Z,99036.56
2018-12-20T10:07:15.721Z,99042.51
2018-12-20T10:09:47.373Z,99041.50
2018-12-20T10:12:18.424Z,99043.26
2018-12-20T10:14:49.199Z,99044.81
2018-12-20T10:17:20.006Z,99052.30
2018-12-20T10:19:47.866Z,99043.16
2018-12-20T10:22:16.262Z,99046.84
2018-12-20T10:24:44.409Z,99041.17
2018-12-20T10:27:12.531Z,99045.44
2018-12-20T10:29:40.787Z,99040.75
2018-12-20T10:32:08.920Z,99033.90
2018-12-20T10:34:37.126Z,99043.17
2018-12-20T10:37:05.307Z,99045.81
2018-12-20T10:39:33.791Z,99034.61
2018-12-20T10:42:01.936Z,99037.65
2018-12-20T10:44:30.968Z,99030.05
2018-12-20T10:47:03.369Z,99036.53
2018-12-20T10:49:31.583Z,99034.22
2018-12-20T10:51:59.733Z,99034.27
2018-12-20T10:54:27.863Z,99040.75
2018-12-20T10:56:57.922Z,99041.05
2018-12-20T10:59:26.107Z,99038.83
2018-12-20T11:02:00.087Z,99041.07
2018-12-20T11:04:30.748Z,99034.47
2018-12-20T11:07:04.301Z,99040.00
2018-12-20T11:09:37.883Z,99037.67
2018-12-20T11:12:09.472Z,99036.05
2018-12-20T11:14:37.765Z,99032.79
2018-12-20T11:17:05.935Z,99026.20
2018-12-20T11:19:34.137Z,99029.59
2018-12-20T11:22:02.404Z,99029.95
2018-12-20T11:24:30.658Z,99040.00
2018-12-20T11:26:59.737Z,99035.01
2018-12-20T11:29:27.937Z,99038.83
2018-12-20T11:31:56.212Z,99032.73
2018-12-20T11:34:24.771Z,99029.59
2018-12-20T11:36:52.879Z,99033.78
2018-12-20T11:39:21.042Z,99025.19
2018-12-20T11:41:49.212Z,99026.95
2018-12-20T11:44:17.487Z,99018.65
2018-12-20T11:46:45.941Z,99019.81
2018-12-20T11:49:14.142Z,99017.13
2018-12-20T11:51:42.305Z,99026.00
2018-12-20T11:54:10.525Z,99026.97
2018-12-20T11:56:38.657Z,99031.73
2018-12-20T11:59:06.829Z,99027.25
2018-12-20T12:01:35.084Z,99036.98
2018-12-20T12:04:03.284Z,99035.22
2018-12-20T12:06:31.471Z,99035.59
2018-12-20T12:08:59.636Z,99034.61
2018-12-20T12:11:27.821Z,99035.14
2018-12-20T12:13:56.392Z,99034.25
2018-12-20T12:16:24.556Z,99035.59
2018-12-20T12:18:52.740Z,99034.03
2018-12-20T12:21:21.387Z,99042.02
2018-12-20T12:23:49.592Z,99034.13
2018-12-20T12:26:17.764Z,99036.42
2018-12-20T12:28:45.966Z,99028.89
2018-12-20T12:31:14.111Z,99043.83
2018-12-20T12:33:42.289Z,99035.45
2018-12-20T12:36:10.946Z,99034.48
2018-12-20T12:38:39.135Z,99031.53
2018-12-20T12:41:07.311Z,99021.81
2018-12-20T12:43:35.981Z,99031.84
2018-12-20T12:46:04.189Z,99035.25
2018-12-20T12:48:32.394Z,99037.95
2018-12-20T12:51:00.906Z,99039.89
2018-12-20T12:53:29.032Z,99040.30
2018-12-20T12:55:57.177Z,99042.80
2018-12-20T12:58:26.139Z,99045.38
2018-12-20T13:00:54.337Z,99050.00
2018-12-20T13:03:22.505Z,99049.05
2018-12-20T13:05:50.698Z,99048.11
2018-12-20T13:08:18.857Z,99051.71
2018-12-20T13:10:47.132Z,99048.01
2018-12-20T13:13:15.282Z,99051.92
2018-12-20T13:15:43.461Z,99052.78
2018-12-20T13:18:13.672Z,99052.28
2018-12-20T13:20:42.770Z,99050.53
2018-12-20T13:23:10.892Z,99045.25
2018-12-20T13:25:39.040Z,99044.59
2018-12-20T13:28:08.318Z,99046.30
2018-12-20T13:30:36.509Z,99046.09
2018-12-20T13:33:04.713Z,99044.78
2018-12-20T13:35:34.729Z,99054.84
2018-12-20T13:38:02.987Z,99056.58
2018-12-20T13:40:31.108Z,99054.40
2018-12-20T13:43:00.527Z,99058.97
2018-12-20T13:45:28.729Z,99054.35
2018-12-20T13:47:56.906Z,99058.97
2018-12-20T13:50:25.316Z,99055.61
2018-12-20T13:52:53.948Z,99057.00
2018-12-20T13:55:22.161Z,99061.98
2018-12-20T13:57:51.160Z,99060.08
2018-12-20T14:00:19.409Z,99054.69
2018-12-20T14:02:47.552Z,99053.58
2018-12-20T14:05:16.049Z,99051.00
2018-12-20T14:07:44.349Z,99049.10
2018-12-20T14:10:12.667Z,99049.50
2018-12-20T14:12:40.890Z,99057.45
2018-12-20T14:15:09.497Z,99061.44
2018-12-20T14:17:38.745Z,99059.50
2018-12-20T14:20:07.879Z,99067.23
2018-12-20T14:22:36.114Z,99060.12
2018-12-20T14:25:05.087Z,99069.06
2018-12-20T14:27:33.216Z,99063.64
2018-12-20T14:30:01.391Z,99068.99
2018-12-20T14:32:30.387Z,99071.08
2018-12-20T14:34:58.539Z,99076.34
2018-12-20T14:37:26.818Z,99078.67
2018-12-20T14:39:55.001Z,99078.14
2018-12-20T14:42:23.164Z,99076.70
2018-12-20T14:44:52.056Z,99076.24
2018-12-20T14:47:20.235Z,99079.13
2018-12-20T14:49:48.402Z,99074.59
2018-12-20T14:52:16.543Z,99076.77
2018-12-20T14:54:44.668Z,99073.92
2018-12-20T14:57:12.872Z,99077.02
2018-12-20T14:59:41.086Z,99074.75
2018-12-20T15:02:09.371Z,99075.89
2018-12-20T15:04:38.551Z,99070.42
2018-12-20T15:07:06.740Z,99080.03
2018-12-20T15:09:34.909Z,99086.23
2018-12-20T15:12:04.090Z,99081.53
2018-12-20T15:14:32.213Z,99083.87
2018-12-20T15:17:00.467Z,99083.62
2018-12-20T15:19:28.653Z,99077.35
2018-12-20T15:21:56.817Z,99074.69
2018-12-20T15:24:25.159Z,99085.50
2018-12-20T15:26:53.361Z,99080.22
2018-12-20T15:29:21.530Z,99083.52
2018-12-20T15:31:53.489Z,99093.67
2018-12-20T15:34:19.845Z,99087.47
2018-12-20T15:36:48.047Z,99100.00
2018-12-20T15:39:16.231Z,99102.30
2018-12-20T15:41:44.444Z,99100.80
2018-12-20T15:44:12.625Z,99104.77
2018-12-20T15:46:40.883Z,99106.27
2018-12-20T15:49:09.070Z,99112.77
2018-12-20T15:51:37.342Z,99114.34
2018-12-20T15:54:05.806Z,99119.34
2018-12-20T15:56:34.009Z,99123.57
2018-12-20T15:59:02.175Z,99127.28
2018-12-20T16:01:31.141Z,99123.78
2018-12-20T16:03:59.273Z,99127.81
2018-12-20T16:06:27.409Z,99132.32
2018-12-20T16:08:55.651Z,99126.86
2018-12-20T16:11:23.762Z,99136.92
2018-12-20T16:13:52.044Z,99143.75
2018-12-20T16:16:20.582Z,99149.67
2018-12-20T16:18:48.787Z,99142.98
2018-12-20T16:21:16.954Z,99147.34
2018-12-20T16:23:45.518Z,99151.63
2018-12-20T16:26:13.639Z,99156.81
2018-12-20T16:28:41.887Z,99158.73
2018-12-20T16:31:10.009Z,99166.64
2018-12-20T16:33:38.133Z,99170.01
2018-12-20T16:36:06.337Z,99173.88
2018-12-20T16:38:34.572Z,99173.06
2018-12-20T16:41:02.868Z,99175.80
2018-12-20T16:43:31.423Z,99169.92
2018-12-20T16:45:59.538Z,99175.88
2018-12-20T16:48:27.687Z,99183.92
2018-12-20T16:50:56.847Z,99187.20
2018-12-20T16:53:24.963Z,99178.47
2018-12-20T16:55:53.141Z,99177.55
2018-12-20T16:58:21.410Z,99178.80
2018-12-20T17:00:49.700Z,99171.88
2018-12-20T17:03:17.858Z,99173.05
2018-12-20T17:05:46.045Z,99174.83
2018-12-20T17:08:14.304Z,99176.16
2018-12-20T17:10:42.523Z,99178.10
2018-12-20T17:13:10.647Z,99177.11
2018-12-20T17:15:38.933Z,99172.97
2018-12-20T17:18:07.196Z,99174.25
2018-12-20T17:20:35.371Z,99178.73
2018-12-20T17:23:04.250Z,99184.94
2018-12-20T17:25:32.440Z,99187.26
2018-12-20T17:28:00.606Z,99190.20
2018-12-20T17:30:29.179Z,99189.06
2018-12-20T17:32:57.365Z,99188.75
2018-12-20T17:35:25.638Z,99186.84
2018-12-20T17:37:53.831Z,99192.48
2018-12-20T17:40:21.987Z,99187.02
2018-12-20T17:42:50.558Z,99187.75
2018-12-20T17:45:18.971Z,99191.52
2018-12-20T17:47:47.181Z,99190.56
2018-12-20T17:50:15.327Z,99189.36
2018-12-20T17:52:43.447Z,99185.33
2018-12-20T17:55:11.574Z,99188.46
2018-12-20T17:57:40.094Z,99188.24
2018-12-20T18:00:10.398Z,99180.47
2018-12-20T18:02:38.502Z,99190.74
2018-12-20T18:05:07.457Z,99191.27
2018-12-20T18:07:35.793Z,99191.41
2018-12-20T18:10:06.011Z,99187.44
2018-12-20T18:12:34.220Z,99184.86
2018-12-20T18:15:02.378Z,99184.50
2018-12-20T18:17:30.628Z,99186.74
2018-12-20T18:19:58.803Z,99187.69
2018-12-20T18:22:26.938Z,99195.87
2018-12-20T18:24:55.425Z,99189.00
2018-12-20T18:27:23.559Z,99190.08
2018-12-20T18:29:51.802Z,99190.81
2018-12-20T18:32:19.964Z,99186.72
2018-12-20T18:34:49.457Z,99185.19
2018-12-20T18:37:17.778Z,99184.23
2018-12-20T18:39:45.959Z,99186.56
2018-12-20T18:42:14.095Z,99188.38
2018-12-20T18:44:42.347Z,99186.37
2018-12-20T18:47:11.659Z,99191.56
2018-12-20T18:49:47.336Z,99194.11
2018-12-20T18:52:09.869Z,99192.41
2018-12-20T18:54:39.177Z,99194.13
2018-12-20T18:57:07.339Z,99198.18
2018-12-20T18:59:35.635Z,99198.55
2018-12-20T19:02:03.907Z,99193.23
2018-12-20T19:04:32.183Z,99191.77
2018-12-20T19:07:01.447Z,99196.02
2018-12-20T19:09:29.669Z,99194.69
2018-12-20T19:11:57.824Z,99197.69
2018-12-20T19:14:26.302Z,99196.23
2018-12-20T19:16:54.575Z,99191.14
2018-12-20T19:19:22.843Z,99200.59
2018-12-20T19:21:51.114Z,99196.56
2018-12-20T19:24:19.302Z,99200.84
2018-12-20T19:26:47.694Z,99195.73
2018-12-20T19:29:15.820Z,99196.51
2018-12-20T19:31:44.025Z,99195.19
2018-12-20T19:34:13.093Z,99192.55
2018-12-20T19:36:41.297Z,99199.22
2018-12-20T19:39:12.838Z,99198.05
2018-12-20T19:41:41.290Z,99200.29
2018-12-20T19:44:09.486Z,99197.34
2018-12-20T19:46:37.671Z,99200.29
2018-12-20T19:49:06.948Z,99204.08
2018-12-20T19:51:35.152Z,99200.86
2018-12-20T19:54:03.548Z,99200.27
2018-12-20T19:56:32.176Z,99197.31
2018-12-20T19:59:00.307Z,99192.68
2018-12-20T20:01:28.510Z,99193.69
2018-12-20T20:03:57.955Z,99198.78
2018-12-20T20:06:26.123Z,99197.41
2018-12-20T20:08:54.302Z,99194.41
2018-12-20T20:11:23.378Z,99193.17
2018-12-20T20:13:51.584Z,99193.67
2018-12-20T20:16:19.742Z,99192.41
2018-12-20T20:18:47.889Z,99196.45
2018-12-20T20:21:16.097Z,99194.80
2018-12-20T20:23:44.263Z,99193.03
2018-12-20T20:26:12.647Z,99193.58
2018-12-20T20:28:40.813Z,99191.98
2018-12-20T20:31:09.012Z,99179.25
2018-12-20T20:33:37.167Z,99179.31
2018-12-20T20:36:07.093Z,99179.64
2018-12-20T20:38:35.277Z,99169.18
2018-12-20T20:41:03.404Z,99173.72
2018-12-20T20:43:31.599Z,99170.84
2018-12-20T20:45:59.851Z,99167.98
2018-12-20T20:48:28.034Z,99169.40
2018-12-20T20:50:56.247Z,99154.11
2018-12-20T20:53:24.423Z,99161.70
2018-12-20T20:55:52.614Z,99164.02
2018-12-20T20:58:20.749Z,99162.37
2018-12-20T21:00:49.072Z,99163.81
2018-12-20T21:03:17.212Z,99162.27
2018-12-20T21:05:45.362Z,99159.66
2018-12-20T21:08:13.504Z,99159.94
2018-12-20T21:10:41.667Z,99158.31
2018-12-20T21:13:10.523Z,99167.55
2018-12-20T21:15:38.670Z,99167.73
2018-12-20T21:18:06.813Z,99165.68
2018-12-20T21:20:36.531Z,99165.95
2018-12-20T21:23:04.739Z,99166.11
2018-12-20T21:25:32.997Z,99157.64
2018-12-20T21:28:01.279Z,99161.69
2018-12-20T21:30:29.438Z,99165.73
2018-12-20T21:32:57.803Z,99166.20
2018-12-20T21:35:26.032Z,99173.88
2018-12-20T21:37:54.283Z,99176.97
2018-12-20T21:40:22.734Z,99176.20
2018-12-20T21:42:50.939Z,99182.07
2018-12-20T21:45:19.111Z,99184.48
2018-12-20T21:47:47.291Z,99178.20
2018-12-20T21:50:15.431Z,99176.75
2018-12-20T21:52:43.639Z,99185.35
2018-12-20T21:55:11.911Z,99173.45
2018-12-20T21:57:40.062Z,99164.80
2018-12-20T22:00:10.048Z,99158.65
2018-12-20T22:02:38.463Z,99151.28
2018-12-20T22:05:08.722Z,99163.74
2018-12-20T22:07:36.863Z,99159.60
2018-12-20T22:10:06.266Z,99172.67
2018-12-20T22:12:34.554Z,99175.98
2018-12-20T22:15:02.731Z,99174.30
2018-12-20T22:17:30.893Z,99166.08
2018-12-20T22:19:59.084Z,99167.89
2018-12-20T22:22:27.337Z,99182.40
2018-12-20T22:24:55.467Z,99181.58
2018-12-20T22:27:23.616Z,99182.16
2018-12-20T22:29:51.751Z,99178.08
2018-12-20T22:32:20.034Z,99186.54
2018-12-20T22:34:48.175Z,99185.59
2018-12-20T22:37:16.372Z,99181.63
2018-12-20T22:39:44.693Z,99184.77
2018-12-20T22:42:12.832Z,99183.81
2018-12-20T22:44:40.963Z,99178.94
2018-12-20T22:47:09.098Z,99178.63
2018-12-20T22:49:37.363Z,99183.81
2018-12-20T22:52:06.109Z,99187.77
2018-12-20T22:54:34.250Z,99194.09
2018-12-20T22:57:02.487Z,99191.30
2018-12-20T22:59:30.670Z,99196.22
2018-12-20T23:01:58.924Z,99190.27
2018-12-20T23:04:27.107Z,99180.94
2018-12-20T23:06:55.352Z,99188.54
2018-12-20T23:09:23.483Z,99183.04
2018-12-20T23:11:52.003Z,99188.63
2018-12-20T23:14:20.209Z,99179.77
2018-12-20T23:16:53.668Z,99174.61
2018-12-20T23:19:18.493Z,99173.11
2018-12-20T23:21:46.678Z,99162.91
2018-12-20T23:24:15.116Z,99173.98
2018-12-20T23:26:43.321Z,99167.61
2018-12-20T23:29:11.587Z,99170.03
2018-12-20T23:31:39.796Z,99157.84
2018-12-20T23:34:07.943Z,99164.75
2018-12-20T23:36:36.118Z,99151.65
2018-12-20T23:39:05.980Z,99155.23
2018-12-20T23:41:34.213Z,99153.65
2018-12-20T23:44:02.392Z,99152.11
2018-12-20T23:46:31.135Z,99159.38
2018-12-20T23:48:59.351Z,99153.03
2018-12-20T23:51:27.508Z,99149.34
2018-12-20T23:53:55.750Z,99152.26
2018-12-20T23:56:23.875Z,99158.39
2018-12-20T23:58:52.038Z,99161.67
